Time;durP1;ratioP1;P1;durP2;ratioP2;P2;SDS_P1;SDS_P2;PMS_P1;PMS_P2;Temp;Humidity;BMP_temperature;BMP_pressure;BME280_temperature;BME280_humidity;BME280_pressure;Samples;Min_cycle;Max_cycle;Signal;HPM_P1;HPM_P2
2023/02/07 00:01:13;;;;;;;0.93;0.80;;;0.30;97.00;;;;;;5130852;27;20778;-65
2023/02/07 00:03:40;;;;;;;1.50;1.10;;;0.20;99.90;;;;;;5130191;27;20687;-66
2023/02/07 00:06:08;;;;;;;0.43;0.43;;;0.20;96.70;;;;;;5130650;27;20217;-66
2023/02/07 00:08:35;;;;;;;1.83;0.90;;;0.20;99.90;;;;;;5130655;27;20203;-66
2023/02/07 00:11:05;;;;;;;2.17;1.10;;;0.20;96.30;;;;;;5130550;27;20224;-66
2023/02/07 00:13:32;;;;;;;1.83;0.98;;;0.10;96.10;;;;;;5130811;27;20257;-66
2023/02/07 00:16:01;;;;;;;1.23;1.23;;;0.00;96.40;;;;;;5129553;27;20223;-67
2023/02/07 00:18:28;;;;;;;0.50;0.50;;;;;;;;;;5129903;27;20197;-66
2023/02/07 00:20:59;;;;;;;2.72;1.70;;;-0.10;99.90;;;;;;5129885;27;20325;-66
2023/02/07 00:23:26;;;;;;;1.85;1.48;;;-0.20;96.30;;;;;;5130556;27;20200;-66
2023/02/07 00:25:53;;;;;;;3.20;1.80;;;-0.10;99.90;;;;;;5129897;27;20210;-66
2023/02/07 00:28:19;;;;;;;0.50;0.50;;;-0.10;96.30;;;;;;5129955;27;20204;-66
2023/02/07 00:30:46;;;;;;;2.08;1.88;;;-0.80;99.90;;;;;;5129706;27;20699;-66
2023/02/07 00:33:15;;;;;;;1.58;1.30;;;-0.30;96.10;;;;;;5130176;27;20209;-66
2023/02/07 00:35:42;;;;;;;0.90;0.90;;;-0.30;96.10;;;;;;5129989;27;20227;-66
2023/02/07 00:38:09;;;;;;;1.92;1.83;;;-0.30;96.10;;;;;;5123820;27;20193;-65
2023/02/07 00:40:36;;;;;;;0.82;0.82;;;-0.40;96.10;;;;;;5114933;27;20337;-66
2023/02/07 00:43:03;;;;;;;0.73;0.73;;;-0.40;96.20;;;;;;5129709;27;20228;-65
2023/02/07 00:45:30;;;;;;;0.90;0.90;;;-0.30;96.40;;;;;;5129938;27;20727;-66
2023/02/07 00:47:56;;;;;;;2.05;1.60;;;-0.30;96.40;;;;;;5129384;27;20277;-66
2023/02/07 00:50:25;;;;;;;1.00;0.55;;;-0.30;96.60;;;;;;5129761;27;20281;-66
2023/02/07 00:52:51;;;;;;;1.25;1.15;;;-0.30;96.50;;;;;;5129611;27;20204;-66
2023/02/07 00:55:18;;;;;;;1.25;1.25;;;-0.30;96.50;;;;;;5129602;27;20838;-66
2023/02/07 00:57:45;;;;;;;1.00;1.00;;;-0.10;99.90;;;;;;5128684;27;20207;-66
2023/02/07 01:00:13;;;;;;;1.05;1.05;;;-0.20;99.90;;;;;;5129495;27;20224;-66
2023/02/07 01:02:40;;;;;;;1.90;1.80;;;;;;;;;;5129495;27;20201;-66
2023/02/07 01:05:07;;;;;;;1.30;1.30;;;-0.20;95.80;;;;;;5129607;27;20229;-66
2023/02/07 01:07:36;;;;;;;0.50;0.50;;;-0.20;96.10;;;;;;5129437;27;20197;-66
2023/02/07 01:10:02;;;;;;;1.58;1.48;;;-0.10;96.00;;;;;;5129008;27;20276;-66
2023/02/07 01:12:29;;;;;;;1.23;1.05;;;-0.10;96.00;;;;;;5129147;27;20638;-66
2023/02/07 01:14:56;;;;;;;1.95;1.35;;;-0.10;95.90;;;;;;5129513;27;20284;-67
2023/02/07 01:17:23;;;;;;;1.48;0.88;;;-0.20;95.80;;;;;;5129079;27;20217;-66
2023/02/07 01:19:50;;;;;;;1.67;1.60;;;-0.30;99.90;;;;;;5129097;27;20243;-66
2023/02/07 01:22:16;;;;;;;2.10;1.80;;;-0.40;95.90;;;;;;5128991;27;20224;-66
2023/02/07 01:24:45;;;;;;;1.55;1.45;;;-0.40;96.00;;;;;;5128369;27;20733;-66
2023/02/07 01:27:11;;;;;;;5.22;2.00;;;-0.40;96.00;;;;;;5129065;27;20303;-66
2023/02/07 01:29:38;;;;;;;4.20;2.25;;;;;;;;;;5129335;27;20232;-66
2023/02/07 01:32:05;;;;;;;1.63;1.52;;;-0.30;99.90;;;;;;5128775;27;20683;-66
2023/02/07 01:34:32;;;;;;;3.88;2.08;;;-0.90;99.90;;;;;;5129118;27;20200;-65
2023/02/07 01:36:59;;;;;;;0.98;0.93;;;-0.60;96.20;;;;;;5126044;27;20231;-66
2023/02/07 01:39:26;;;;;;;0.90;0.90;;;;;;;;;;5113559;27;20199;-66
2023/02/07 01:41:54;;;;;;;0.60;0.60;;;-0.50;96.10;;;;;;5120982;27;20706;-66
2023/02/07 01:44:54;;;;;;;0.95;0.95;;;-0.40;96.30;;;;;;5108789;28;20200;-66
2023/02/07 01:47:24;;;;;;;2.97;1.95;;;-0.30;99.00;;;;;;5108518;27;20308;-67
2023/02/07 01:49:55;;;;;;;1.30;1.00;;;-0.40;96.40;;;;;;5108186;28;20211;-66
2023/02/07 01:52:27;;;;;;;2.13;2.03;;;-0.50;96.60;;;;;;5108158;28;20343;-66
2023/02/07 01:54:58;;;;;;;0.70;0.70;;;-0.50;96.70;;;;;;5111970;27;20194;-66
2023/02/07 01:57:27;;;;;;;0.55;0.55;;;-0.40;96.60;;;;;;5110309;27;20225;-65
2023/02/07 01:59:56;;;;;;;0.77;0.77;;;-0.50;96.50;;;;;;5128753;27;20224;-66
2023/02/07 02:02:24;;;;;;;2.30;1.65;;;-0.70;99.90;;;;;;5120748;27;20224;-65
2023/02/07 02:04:54;;;;;;;1.25;1.25;;;-0.70;96.60;;;;;;5106315;28;20200;-66
2023/02/07 02:07:21;;;;;;;1.70;1.60;;;-0.70;96.90;;;;;;5107658;27;20209;-65
2023/02/07 02:09:48;;;;;;;1.35;1.25;;;-0.70;97.00;;;;;;5108109;28;20203;-65
2023/02/07 02:12:30;;;;;;;1.20;1.08;;;-0.70;97.20;;;;;;5123076;27;20215;-67
2023/02/07 02:15:14;;;;;;;2.80;2.67;;;-0.60;96.90;;;;;;5128428;27;20214;-66
2023/02/07 02:17:58;;;;;;;2.20;2.10;;;-0.60;96.60;;;;;;5128075;27;20200;-66
2023/02/07 02:21:06;;;;;;;3.55;2.20;;;-0.60;96.70;;;;;;5127979;28;20228;-65
2023/02/07 02:23:44;;;;;;;0.70;0.70;;;-0.70;96.90;;;;;;5101124;28;20215;-65
2023/02/07 02:26:44;;;;;;;1.42;1.38;;;-0.70;96.90;;;;;;5127817;28;20219;-66
2023/02/07 02:29:53;;;;;;;1.35;1.35;;;-0.80;96.70;;;;;;5127183;28;20195;-67
2023/02/07 02:33:01;;;;;;;0.77;0.77;;;-0.90;96.60;;;;;;5127868;28;20234;-66
2023/02/07 02:35:34;;;;;;;1.83;1.67;;;-1.00;96.50;;;;;;5107919;28;20224;-67
2023/02/07 02:38:10;;;;;;;2.47;2.28;;;-1.00;96.50;;;;;;5122702;28;20893;-65
2023/02/07 02:40:44;;;;;;;1.50;1.40;;;-1.00;99.90;;;;;;5123283;28;20232;-65
2023/02/07 02:43:19;;;;;;;3.70;2.22;;;-1.10;96.30;;;;;;5125752;28;20207;-66
2023/02/07 02:45:52;;;;;;;0.73;0.73;;;-1.20;96.30;;;;;;5109851;28;20719;-65
2023/02/07 02:48:22;;;;;;;3.03;2.78;;;-1.20;96.40;;;;;;5128262;27;20553;-66
2023/02/07 02:50:49;;;;;;;1.95;1.88;;;-1.20;96.50;;;;;;5132104;27;20722;-66
2023/02/07 02:53:17;;;;;;;2.15;1.95;;;-1.20;96.50;;;;;;5132043;27;20211;-66
2023/02/07 02:56:24;;;;;;;1.10;1.10;;;-1.30;96.10;;;;;;5132113;27;20766;-66
2023/02/07 02:59:17;;;;;;;20.60;2.08;;;-1.30;96.20;;;;;;5038445;28;20200;-65
2023/02/07 03:01:54;;;;;;;0.82;0.82;;;-1.30;99.90;;;;;;5127534;27;20818;-66
2023/02/07 03:04:37;;;;;;;5.10;2.05;;;-1.30;96.10;;;;;;5131904;27;20218;-66
2023/02/07 03:07:20;;;;;;;1.42;1.33;;;-1.40;95.90;;;;;;5116835;27;20226;-66
2023/02/07 03:09:54;;;;;;;0.88;0.88;;;-1.50;96.00;;;;;;5111336;28;20283;-65
2023/02/07 03:12:26;;;;;;;1.88;1.77;;;-1.50;96.00;;;;;;5119133;27;20246;-66
2023/02/07 03:14:59;;;;;;;1.17;1.08;;;-1.50;96.00;;;;;;5131674;27;20206;-66
2023/02/07 03:17:32;;;;;;;1.70;1.60;;;-1.50;96.00;;;;;;5130867;27;20253;-66
2023/02/07 03:20:06;;;;;;;4.18;3.88;;;-1.60;95.90;;;;;;5131270;27;20204;-65
2023/02/07 03:22:34;;;;;;;1.83;1.58;;;-1.60;96.00;;;;;;5131230;27;20207;-65
2023/02/07 03:25:05;;;;;;;6.22;1.95;;;-1.60;96.10;;;;;;5114037;27;20332;-65
2023/02/07 03:27:36;;;;;;;1.95;1.85;;;-1.50;95.90;;;;;;5130543;27;20205;-67
2023/02/07 03:30:08;;;;;;;1.60;1.60;;;-1.60;99.90;;;;;;5130765;27;20199;-66
2023/02/07 03:32:39;;;;;;;1.17;1.08;;;-1.70;95.90;;;;;;5131536;27;20282;-66
2023/02/07 03:35:13;;;;;;;3.75;3.50;;;-1.40;99.40;;;;;;5131404;27;20233;-66
2023/02/07 03:37:43;;;;;;;2.45;1.50;;;-1.70;96.10;;;;;;5124033;27;20237;-65
2023/02/07 03:40:12;;;;;;;2.95;2.85;;;-1.70;96.00;;;;;;5125580;27;20694;-66
2023/02/07 03:42:44;;;;;;;1.95;1.85;;;-1.60;96.00;;;;;;5119361;27;20601;-66
2023/02/07 03:45:16;;;;;;;3.00;2.08;;;-1.70;96.00;;;;;;5131609;27;20220;-65
2023/02/07 03:47:43;;;;;;;2.30;2.20;;;-1.70;96.00;;;;;;5130975;27;20201;-65
2023/02/07 03:50:13;;;;;;;3.15;2.95;;;-1.70;96.00;;;;;;5130937;27;20311;-66
2023/02/07 03:52:40;;;;;;;1.67;1.45;;;-1.70;96.10;;;;;;5130310;27;20198;-65
2023/02/07 03:55:09;;;;;;;2.58;2.33;;;-1.70;95.80;;;;;;5131124;27;20281;-67
2023/02/07 03:57:37;;;;;;;1.45;1.35;;;-1.70;95.80;;;;;;5129922;27;20666;-66
2023/02/07 04:00:06;;;;;;;4.20;2.58;;;-1.80;95.90;;;;;;5130384;27;20286;-66
2023/02/07 04:02:35;;;;;;;1.00;1.00;;;-1.60;95.90;;;;;;5130454;27;20199;-65
2023/02/07 04:05:02;;;;;;;11.65;2.58;;;-1.60;96.00;;;;;;5131281;27;20609;-66
2023/02/07 04:07:30;;;;;;;2.95;1.73;;;-1.60;95.60;;;;;;5129933;27;20219;-65
2023/02/07 04:09:57;;;;;;;1.15;1.15;;;-1.70;95.70;;;;;;5130825;27;20755;-65
2023/02/07 04:12:25;;;;;;;6.65;2.75;;;-1.80;95.80;;;;;;5130340;27;20229;-66
2023/02/07 04:14:52;;;;;;;1.73;1.40;;;-1.80;95.60;;;;;;5130800;27;20198;-66
2023/02/07 04:17:18;;;;;;;3.03;2.40;;;-1.80;95.60;;;;;;5129798;27;20243;-66
2023/02/07 04:19:45;;;;;;;5.28;2.00;;;-1.80;95.40;;;;;;5129957;27;20549;-66
2023/02/07 04:22:12;;;;;;;2.35;1.92;;;-1.80;95.30;;;;;;5130257;27;20298;-66
2023/02/07 04:24:40;;;;;;;3.03;2.85;;;-1.80;95.40;;;;;;5130278;27;20192;-66
2023/02/07 04:27:07;;;;;;;1.00;1.00;;;-1.80;95.40;;;;;;5129942;27;20218;-65
2023/02/07 04:29:34;;;;;;;2.00;1.90;;;-1.70;95.30;;;;;;5129862;27;20221;-66
2023/02/07 04:32:02;;;;;;;2.70;2.47;;;-1.70;95.00;;;;;;5129869;27;20244;-65
2023/02/07 04:34:29;;;;;;;2.65;2.45;;;-1.70;96.90;;;;;;5129653;27;20676;-66
2023/02/07 04:36:56;;;;;;;2.00;1.75;;;-1.80;94.90;;;;;;5129767;27;20229;-65
2023/02/07 04:39:22;;;;;;;1.05;1.05;;;-1.80;94.70;;;;;;5124605;27;20225;-66
2023/02/07 04:41:51;;;;;;;2.10;1.50;;;-1.80;94.70;;;;;;5117593;27;20242;-65
2023/02/07 04:44:17;;;;;;;1.48;1.42;;;-1.80;94.80;;;;;;5130271;27;20628;-65
2023/02/07 04:46:44;;;;;;;0.88;0.88;;;-1.90;94.90;;;;;;5109418;28;20220;-66
2023/02/07 04:49:11;;;;;;;1.33;1.27;;;-1.80;94.90;;;;;;5122966;27;20204;-65
2023/02/07 04:51:38;;;;;;;1.42;1.38;;;-1.90;94.70;;;;;;5127187;27;20311;-66
2023/02/07 04:54:05;;;;;;;1.55;1.20;;;-1.80;94.70;;;;;;5109553;28;20192;-65
2023/02/07 04:56:31;;;;;;;1.55;1.50;;;-1.90;94.50;;;;;;5109389;28;20220;-66
2023/02/07 04:59:00;;;;;;;1.00;0.90;;;-1.90;94.50;;;;;;5113514;27;20193;-65
2023/02/07 05:01:26;;;;;;;0.85;0.85;;;-1.90;94.40;;;;;;5127965;27;20227;-66
2023/02/07 05:03:53;;;;;;;1.17;1.17;;;-1.90;94.40;;;;;;5109031;28;20248;-65
2023/02/07 05:06:20;;;;;;;1.60;1.52;;;-1.90;94.50;;;;;;5109141;27;20315;-66
2023/02/07 05:08:47;;;;;;;1.98;1.98;;;-1.90;94.50;;;;;;5108794;28;20214;-65
2023/02/07 05:11:14;;;;;;;5.28;2.47;;;-2.00;94.30;;;;;;5116029;27;20671;-66
2023/02/07 05:13:40;;;;;;;1.70;1.60;;;-1.90;94.30;;;;;;5129285;27;20201;-66
2023/02/07 05:16:08;;;;;;;1.45;1.35;;;-2.00;94.30;;;;;;5128820;27;20217;-65
2023/02/07 05:18:35;;;;;;;2.25;2.15;;;-2.00;94.50;;;;;;5129133;27;20190;-65
2023/02/07 05:21:02;;;;;;;2.38;2.25;;;-2.00;94.40;;;;;;5129246;27;20221;-66
2023/02/07 05:23:29;;;;;;;2.88;1.15;;;-2.00;94.50;;;;;;5129472;27;20926;-66
2023/02/07 05:25:56;;;;;;;4.45;2.45;;;-1.90;94.50;;;;;;5128997;27;20550;-65
2023/02/07 05:28:22;;;;;;;1.48;1.48;;;-2.00;97.10;;;;;;5129002;27;20195;-65
2023/02/07 05:30:53;;;;;;;1.30;1.17;;;-2.00;94.60;;;;;;5128129;27;20221;-65
2023/02/07 05:33:20;;;;;;;2.42;1.45;;;-2.00;94.60;;;;;;5129194;27;20373;-65
2023/02/07 05:35:47;;;;;;;1.83;1.73;;;-2.00;94.70;;;;;;5128748;27;20217;-66
2023/02/07 05:38:15;;;;;;;7.55;4.40;;;-2.10;94.60;;;;;;5122334;27;21597;-65
2023/02/07 05:40:43;;;;;;;2.38;2.17;;;-2.30;94.90;;;;;;5122858;27;20241;-65
2023/02/07 05:43:10;;;;;;;2.42;1.95;;;-2.20;95.10;;;;;;5128584;27;20204;-66
2023/02/07 05:45:37;;;;;;;4.78;3.50;;;-2.10;95.00;;;;;;5128824;27;20224;-65
2023/02/07 05:48:05;;;;;;;0.95;0.95;;;-2.10;94.80;;;;;;5128010;27;20269;-66
2023/02/07 05:50:33;;;;;;;1.35;1.35;;;-2.20;94.70;;;;;;5128859;27;20241;-65
2023/02/07 05:52:59;;;;;;;2.40;2.30;;;-2.20;94.60;;;;;;5128533;27;20230;-66
2023/02/07 05:55:26;;;;;;;1.13;1.13;;;-2.00;94.90;;;;;;5127876;27;20226;-66
2023/02/07 05:57:53;;;;;;;1.60;1.35;;;-2.30;94.60;;;;;;5127943;27;20257;-66
2023/02/07 06:00:20;;;;;;;1.33;1.33;;;-2.30;94.50;;;;;;5124602;27;20304;-66
2023/02/07 06:02:47;;;;;;;1.42;1.33;;;-2.30;94.40;;;;;;5126884;27;20224;-65
2023/02/07 06:05:16;;;;;;;2.10;2.00;;;-2.30;94.50;;;;;;5128457;27;20754;-66
2023/02/07 06:07:44;;;;;;;0.93;0.93;;;-2.30;94.70;;;;;;5108040;28;20254;-66
2023/02/07 06:10:12;;;;;;;1.40;1.30;;;-2.50;94.50;;;;;;5106495;27;20194;-66
2023/02/07 06:12:39;;;;;;;2.83;2.63;;;-2.40;94.80;;;;;;5107375;28;20203;-65
2023/02/07 06:15:06;;;;;;;1.58;1.40;;;-2.50;94.60;;;;;;5107356;28;20205;-67
2023/02/07 06:17:33;;;;;;;1.20;1.10;;;-2.30;94.50;;;;;;5116566;27;20203;-65
2023/02/07 06:20:00;;;;;;;1.70;1.60;;;-2.30;94.20;;;;;;5112108;28;20280;-66
2023/02/07 06:22:27;;;;;;;1.40;1.40;;;-2.30;93.90;;;;;;5127306;27;20280;-65
2023/02/07 06:24:55;;;;;;;1.33;1.25;;;-2.20;95.60;;;;;;5127646;28;20206;-65
2023/02/07 06:27:22;;;;;;;4.15;3.75;;;-2.30;93.80;;;;;;5127529;28;20793;-65
2023/02/07 06:29:48;;;;;;;2.95;2.85;;;-2.30;93.70;;;;;;5127892;28;20293;-65
2023/02/07 06:32:15;;;;;;;4.43;2.58;;;-2.30;93.70;;;;;;5127314;28;20233;-67
2023/02/07 06:34:42;;;;;;;9.48;3.10;;;-2.10;94.00;;;;;;5125091;28;20277;-65
2023/02/07 06:37:09;;;;;;;0.98;0.98;;;-2.30;93.80;;;;;;5114573;28;20222;-66
2023/02/07 06:39:37;;;;;;;2.55;2.25;;;-0.90;94.60;;;;;;5116166;28;20200;-67
2023/02/07 06:42:05;;;;;;;3.67;2.35;;;-2.30;93.90;;;;;;5126128;28;20230;-66
2023/02/07 06:44:32;;;;;;;2.40;1.88;;;-2.30;94.00;;;;;;5126714;28;20597;-66
2023/02/07 06:46:58;;;;;;;3.50;3.25;;;-2.30;93.70;;;;;;5126415;28;20227;-65
2023/02/07 06:49:25;;;;;;;1.83;1.75;;;-2.30;93.80;;;;;;5109168;28;20198;-65
2023/02/07 06:51:52;;;;;;;2.13;1.98;;;-2.60;95.80;;;;;;5121280;28;20232;-65
2023/02/07 06:54:19;;;;;;;1.27;1.27;;;-2.40;93.90;;;;;;5126458;28;20607;-66
2023/02/07 06:56:46;;;;;;;0.80;0.80;;;-2.40;94.00;;;;;;5127708;28;20224;-65
2023/02/07 06:59:14;;;;;;;2.72;2.53;;;-2.40;94.00;;;;;;5110031;28;20698;-65
2023/02/07 07:01:41;;;;;;;3.30;3.10;;;-2.40;94.10;;;;;;5108597;28;20226;-66
2023/02/07 07:04:08;;;;;;;2.17;2.03;;;-2.60;94.20;;;;;;5109580;28;20196;-65
2023/02/07 07:06:34;;;;;;;2.38;1.80;;;-2.80;94.60;;;;;;5125550;28;21298;-66
2023/02/07 07:09:01;;;;;;;2.00;1.90;;;-2.70;94.80;;;;;;5126617;28;20222;-67
2023/02/07 07:11:28;;;;;;;1.95;1.67;;;-2.70;95.10;;;;;;5127035;28;20617;-66
2023/02/07 07:13:55;;;;;;;2.67;1.80;;;-2.70;95.20;;;;;;5124344;28;20611;-66
2023/02/07 07:16:23;;;;;;;1.25;1.25;;;-2.80;95.10;;;;;;5125795;28;20578;-66
2023/02/07 07:18:50;;;;;;;1.88;1.77;;;-2.80;95.30;;;;;;5126436;28;20195;-66
2023/02/07 07:21:17;;;;;;;4.55;2.03;;;-2.70;95.20;;;;;;5126634;28;20222;-65
2023/02/07 07:23:43;;;;;;;1.85;1.75;;;-2.70;95.30;;;;;;5126408;28;20296;-65
2023/02/07 07:26:10;;;;;;;1.77;1.67;;;-2.80;95.30;;;;;;5126002;28;20221;-65
2023/02/07 07:28:37;;;;;;;2.08;1.98;;;-2.80;95.50;;;;;;5126123;28;20197;-66
2023/02/07 07:31:05;;;;;;;0.50;0.50;;;-2.80;95.50;;;;;;5127893;28;20621;-67
2023/02/07 07:33:33;;;;;;;1.52;1.52;;;-2.70;95.50;;;;;;5126145;27;20206;-66
2023/02/07 07:36:01;;;;;;;1.50;1.40;;;-2.70;95.60;;;;;;5129751;27;20707;-66
2023/02/07 07:38:28;;;;;;;2.20;1.67;;;-2.50;95.10;;;;;;5116832;27;20201;-65
2023/02/07 07:40:55;;;;;;;2.92;1.67;;;-2.40;95.10;;;;;;5128036;27;20239;-65
2023/02/07 07:43:22;;;;;;;1.48;1.38;;;-2.30;94.90;;;;;;5130645;27;20246;-66
2023/02/07 07:45:53;;;;;;;0.68;0.68;;;-2.30;94.90;;;;;;5130531;27;20215;-66
2023/02/07 07:48:20;;;;;;;1.70;1.55;;;-2.30;94.90;;;;;;5121191;27;20199;-66
2023/02/07 07:50:48;;;;;;;5.97;2.97;;;-2.30;95.00;;;;;;5112686;27;20307;-66
2023/02/07 07:53:16;;;;;;;1.48;1.38;;;-2.30;95.00;;;;;;5131218;27;20198;-66
2023/02/07 07:55:43;;;;;;;2.03;1.92;;;-2.20;95.00;;;;;;5130057;27;20219;-66
2023/02/07 07:58:09;;;;;;;3.33;3.03;;;-2.20;94.90;;;;;;5130056;27;20193;-66
2023/02/07 08:00:36;;;;;;;0.80;0.80;;;-2.10;94.80;;;;;;5129017;27;20313;-65
2023/02/07 08:03:03;;;;;;;1.58;1.48;;;-1.90;94.70;;;;;;5129087;27;20231;-66
2023/02/07 08:05:30;;;;;;;1.95;1.95;;;-1.80;94.50;;;;;;5109731;27;20300;-66
2023/02/07 08:07:58;;;;;;;0.90;0.82;;;-1.70;94.40;;;;;;5110935;27;20737;-66
2023/02/07 08:10:25;;;;;;;2.45;2.25;;;-1.60;94.40;;;;;;5129448;27;20658;-65
2023/02/07 08:12:52;;;;;;;1.25;1.25;;;-1.40;94.20;;;;;;5130320;27;20718;-66
2023/02/07 08:15:19;;;;;;;2.33;2.13;;;-1.30;93.90;;;;;;5129537;27;20199;-66
2023/02/07 08:17:45;;;;;;;2.60;2.42;;;-1.30;93.60;;;;;;5123829;27;20958;-66
2023/02/07 08:20:12;;;;;;;3.88;3.17;;;-1.10;93.40;;;;;;5117140;27;20287;-65
2023/02/07 08:22:39;;;;;;;3.50;1.92;;;-1.10;92.90;;;;;;5109625;28;20235;-65
2023/02/07 08:25:08;;;;;;;1.67;1.67;;;-1.00;92.70;;;;;;5122010;27;20204;-66
2023/02/07 08:27:35;;;;;;;2.72;2.63;;;-0.90;92.60;;;;;;5128538;27;20597;-66
2023/02/07 08:30:02;;;;;;;1.13;1.13;;;-0.70;92.10;;;;;;5108243;28;20289;-66
2023/02/07 08:32:29;;;;;;;1.88;1.60;;;-0.80;92.20;;;;;;5109478;28;20696;-66
2023/02/07 08:34:56;;;;;;;2.35;2.15;;;-0.60;92.20;;;;;;5126038;27;20575;-66
2023/02/07 08:37:23;;;;;;;1.50;1.40;;;-0.70;92.50;;;;;;5123382;27;20322;-66
2023/02/07 08:39:51;;;;;;;1.25;1.15;;;-0.90;93.20;;;;;;5115959;27;20666;-66
2023/02/07 08:42:20;;;;;;;1.73;1.63;;;-0.90;93.50;;;;;;5119054;27;20224;-66
2023/02/07 08:44:47;;;;;;;5.88;5.28;;;-0.80;93.20;;;;;;5130098;27;20196;-66
2023/02/07 08:47:14;;;;;;;1.90;1.80;;;-0.90;93.70;;;;;;5128054;27;20629;-66
2023/02/07 08:49:40;;;;;;;4.80;1.77;;;-0.90;94.10;;;;;;5127429;27;20201;-66
2023/02/07 08:52:08;;;;;;;2.55;1.52;;;-0.70;93.90;;;;;;5129163;27;20224;-66
2023/02/07 08:54:35;;;;;;;1.67;1.58;;;-0.60;93.50;;;;;;5129260;27;20884;-66
2023/02/07 08:57:02;;;;;;;4.20;2.65;;;-0.60;93.60;;;;;;5127387;27;20643;-66
2023/02/07 08:59:30;;;;;;;1.33;1.33;;;-0.40;93.10;;;;;;5112630;27;20285;-67
2023/02/07 09:01:57;;;;;;;1.88;1.77;;;-0.40;92.70;;;;;;5121298;27;20335;-66
2023/02/07 09:04:24;;;;;;;3.63;2.72;;;-0.30;92.40;;;;;;5129256;27;20707;-66
2023/02/07 09:06:50;;;;;;;1.95;1.85;;;-0.50;92.80;;;;;;5128877;27;20318;-66
2023/02/07 09:09:17;;;;;;;4.55;2.67;;;-0.50;93.00;;;;;;5127280;27;20296;-67
2023/02/07 09:11:44;;;;;;;1.60;1.50;;;-0.30;92.80;;;;;;5128231;27;20213;-65
2023/02/07 09:14:11;;;;;;;1.30;1.30;;;-0.40;92.50;;;;;;5109154;28;20193;-66
2023/02/07 09:16:39;;;;;;;0.60;0.60;;;-0.40;92.60;;;;;;5109628;27;20313;-66
2023/02/07 09:19:06;;;;;;;1.92;1.77;;;-0.40;92.80;;;;;;5108120;28;20297;-66
2023/02/07 09:21:33;;;;;;;3.38;1.95;;;-0.50;92.90;;;;;;5121402;27;20406;-66
2023/02/07 09:23:59;;;;;;;1.77;1.75;;;-0.20;92.70;;;;;;5108986;27;20702;-66
2023/02/07 09:26:26;;;;;;;1.98;1.88;;;0.10;91.90;;;;;;5108222;28;20228;-66
2023/02/07 09:28:53;;;;;;;0.80;0.80;;;0.30;91.70;;;;;;5109048;27;20236;-66
2023/02/07 09:31:20;;;;;;;2.45;1.90;;;0.40;91.20;;;;;;5115452;27;20306;-66
2023/02/07 09:33:48;;;;;;;3.17;1.80;;;0.60;91.10;;;;;;5128886;27;20275;-66
2023/02/07 09:36:20;;;;;;;1.48;1.38;;;0.60;90.70;;;;;;5127926;27;20308;-67
2023/02/07 09:38:47;;;;;;;1.58;1.15;;;0.60;90.60;;;;;;5127609;27;20280;-66
2023/02/07 09:41:22;;;;;;;1.40;1.25;;;0.60;90.20;;;;;;5114002;27;20232;-66
2023/02/07 09:44:12;;;;;;;2.85;2.65;;;0.70;90.40;;;;;;5123183;27;20304;-66
2023/02/07 09:46:45;;;;;;;2.30;2.25;;;0.80;90.10;;;;;;5111904;27;20235;-66
2023/02/07 09:49:23;;;;;;;2.35;2.15;;;0.90;90.30;;;;;;5127957;27;20283;-66
2023/02/07 09:51:52;;;;;;;1.77;1.67;;;0.80;90.40;;;;;;5128322;27;20339;-66
2023/02/07 09:54:23;;;;;;;1.20;1.17;;;0.80;90.40;;;;;;5128594;27;20204;-66
2023/02/07 09:56:52;;;;;;;3.83;1.85;;;0.90;90.50;;;;;;5121253;27;20802;-67
2023/02/07 09:59:24;;;;;;;1.63;1.52;;;0.80;90.30;;;;;;5127668;27;20539;-66
2023/02/07 10:01:57;;;;;;;2.67;2.25;;;0.80;90.30;;;;;;5126616;27;20228;-66
2023/02/07 10:04:36;;;;;;;2.38;2.28;;;0.90;90.20;;;;;;5112724;27;20189;-66
2023/02/07 10:07:07;;;;;;;1.10;1.10;;;0.80;89.50;;;;;;5128032;27;20221;-66
2023/02/07 10:09:38;;;;;;;1.17;1.10;;;0.70;90.60;;;;;;5118899;27;20193;-66
2023/02/07 10:12:21;;;;;;;5.50;2.45;;;0.30;90.80;;;;;;5121452;27;20217;-66
2023/02/07 10:15:15;;;;;;;4.50;2.55;;;0.50;91.60;;;;;;5125702;27;20208;-66
2023/02/07 10:18:00;;;;;;;2.45;1.33;;;0.50;91.70;;;;;;5128080;27;20282;-66
2023/02/07 10:20:36;;;;;;;6.97;3.65;;;0.50;91.40;;;;;;5127144;27;20266;-66
2023/02/07 10:23:17;;;;;;;3.85;3.30;;;0.70;91.00;;;;;;5108964;28;20260;-66
2023/02/07 10:25:56;;;;;;;0.88;0.88;;;0.80;91.10;;;;;;5123562;28;20217;-66
2023/02/07 10:28:46;;;;;;;1.48;1.42;;;0.80;91.30;;;;;;5106988;28;20205;-66
2023/02/07 10:31:17;;;;;;;1.98;1.80;;;0.90;90.10;;;;;;5117306;28;20217;-66
2023/02/07 10:33:49;;;;;;;1.70;1.60;;;0.80;90.90;;;;;;5128056;28;20573;-66
2023/02/07 10:36:18;;;;;;;7.68;2.63;;;0.90;91.10;;;;;;5127261;27;20233;-67
2023/02/07 10:38:53;;;;;;;1.52;1.48;;;0.90;90.80;;;;;;5114730;28;20664;-66
2023/02/07 10:41:25;;;;;;;2.40;2.22;;;0.80;90.30;;;;;;5124022;28;20280;-66
2023/02/07 10:43:52;;;;;;;1.63;1.25;;;0.90;90.70;;;;;;5127543;28;20221;-66
2023/02/07 10:46:22;;;;;;;1.58;1.48;;;0.90;90.10;;;;;;5115963;28;20224;-66
2023/02/07 10:48:49;;;;;;;3.72;3.30;;;1.10;90.00;;;;;;5126744;28;20189;-66
2023/02/07 10:51:26;;;;;;;1.30;1.20;;;1.30;88.00;;;;;;5127505;28;20233;-66
2023/02/07 10:54:06;;;;;;;1.88;1.30;;;1.30;86.90;;;;;;5126393;28;20683;-67
2023/02/07 10:56:36;;;;;;;3.25;2.55;;;1.40;86.30;;;;;;5125073;28;20297;-66
2023/02/07 10:59:03;;;;;;;1.05;1.02;;;1.40;85.70;;;;;;5123439;28;20662;-66
2023/02/07 11:01:33;;;;;;;3.63;2.30;;;1.50;85.70;;;;;;5127278;28;20228;-67
2023/02/07 11:04:00;;;;;;;1.65;1.13;;;1.60;84.90;;;;;;5126814;28;20237;-66
2023/02/07 11:06:29;;;;;;;3.13;2.60;;;1.50;83.90;;;;;;5127007;28;20241;-67
2023/02/07 11:09:19;;;;;;;2.67;2.47;;;1.70;82.00;;;;;;5127224;27;20217;-66
2023/02/07 11:11:49;;;;;;;2.10;1.17;;;1.60;82.10;;;;;;5125098;27;20232;-66
2023/02/07 11:14:19;;;;;;;3.95;2.30;;;1.70;81.30;;;;;;5116084;27;20730;-67
2023/02/07 11:16:47;;;;;;;1.33;1.33;;;1.80;80.10;;;;;;5131690;27;20217;-66
2023/02/07 11:19:19;;;;;;;2.08;1.90;;;1.70;77.70;;;;;;5131308;27;20227;-67
2023/02/07 11:21:50;;;;;;;2.85;1.30;;;1.70;77.80;;;;;;5130660;27;20237;-66
2023/02/07 11:24:20;;;;;;;1.23;1.13;;;1.70;76.20;;;;;;5131317;27;20315;-66
2023/02/07 11:26:57;;;;;;;1.42;1.33;;;1.70;77.00;;;;;;5131020;27;20282;-66
2023/02/07 11:29:25;;;;;;;1.15;1.00;;;1.70;77.00;;;;;;5112953;27;20197;-66
2023/02/07 11:31:54;;;;;;;1.85;1.63;;;1.70;77.50;;;;;;5120806;27;20524;-65
2023/02/07 11:34:37;;;;;;;0.70;0.70;;;1.60;75.10;;;;;;5131258;27;20569;-66
2023/02/07 11:37:24;;;;;;;0.77;0.77;;;1.60;75.10;;;;;;5128314;27;20244;-66
2023/02/07 11:39:54;;;;;;;1.40;1.35;;;1.70;71.80;;;;;;5119246;27;20279;-66
2023/02/07 11:42:22;;;;;;;2.53;2.38;;;1.70;71.00;;;;;;5130326;27;20217;-67
2023/02/07 11:44:51;;;;;;;3.10;2.38;;;1.70;71.20;;;;;;5118136;27;20248;-68
2023/02/07 11:47:22;;;;;;;2.25;2.05;;;1.80;72.50;;;;;;5120175;27;20217;-68
2023/02/07 11:49:53;;;;;;;2.25;2.15;;;1.70;73.50;;;;;;5120376;27;20612;-67
2023/02/07 11:52:22;;;;;;;0.77;0.50;;;1.80;72.80;;;;;;5129748;27;20225;-68
2023/02/07 11:54:53;;;;;;;1.52;1.42;;;1.80;72.70;;;;;;5123175;27;20675;-68
2023/02/07 11:57:22;;;;;;;4.63;1.95;;;1.90;77.70;;;;;;5129703;27;20304;-67
2023/02/07 11:59:58;;;;;;;1.30;1.20;;;1.90;80.80;;;;;;5123670;27;20227;-67
2023/02/07 12:02:28;;;;;;;2.15;1.80;;;1.80;81.40;;;;;;5115886;27;20466;-66
2023/02/07 12:04:55;;;;;;;3.70;2.22;;;1.80;84.00;;;;;;5130424;27;20224;-67
2023/02/07 12:07:29;;;;;;;1.30;1.30;;;1.90;85.40;;;;;;5130362;27;20229;-67
2023/02/07 12:09:57;;;;;;;1.33;1.10;;;1.80;84.20;;;;;;5129879;27;20292;-67
2023/02/07 12:12:33;;;;;;;1.45;1.35;;;1.70;85.30;;;;;;5130313;27;20233;-66
2023/02/07 12:15:03;;;;;;;3.83;2.95;;;1.90;84.80;;;;;;5118434;27;20211;-67
2023/02/07 12:17:39;;;;;;;2.15;1.95;;;1.90;85.80;;;;;;5114032;27;20292;-68
2023/02/07 12:20:14;;;;;;;1.13;1.05;;;2.00;84.00;;;;;;5129054;27;20292;-68
2023/02/07 12:22:48;;;;;;;1.92;1.70;;;2.00;83.20;;;;;;5130097;27;20310;-67
2023/02/07 12:25:21;;;;;;;1.58;1.45;;;2.00;85.50;;;;;;5129133;27;20288;-69
2023/02/07 12:27:51;;;;;;;2.75;2.53;;;2.00;85.60;;;;;;5121175;27;20201;-68
2023/02/07 12:30:24;;;;;;;1.23;1.15;;;2.00;85.30;;;;;;5108798;27;20202;-67
2023/02/07 12:32:59;;;;;;;2.97;2.08;;;2.00;84.40;;;;;;5123286;27;20221;-68
2023/02/07 12:35:32;;;;;;;1.27;0.95;;;2.10;83.80;;;;;;5125198;27;20555;-67
2023/02/07 12:38:12;;;;;;;2.08;1.98;;;2.10;82.10;;;;;;5125958;27;20220;-67
2023/02/07 12:40:44;;;;;;;2.58;1.75;;;2.10;81.70;;;;;;5113549;27;20231;-68
2023/02/07 12:43:14;;;;;;;1.40;1.30;;;2.20;82.50;;;;;;5109520;28;20232;-68
2023/02/07 12:45:57;;;;;;;1.40;1.33;;;2.20;82.20;;;;;;5114106;27;20220;-66
2023/02/07 12:48:40;;;;;;;5.00;2.83;;;2.20;84.30;;;;;;5128924;27;20219;-67
2023/02/07 12:51:20;;;;;;;3.05;1.95;;;2.20;82.70;;;;;;5129960;27;20233;-68
2023/02/07 12:54:07;;;;;;;3.22;2.53;;;2.30;80.60;;;;;;5129884;27;20207;-68
2023/02/07 12:56:42;;;;;;;0.95;0.75;;;2.30;78.20;;;;;;5128808;27;20225;-67
2023/02/07 12:59:20;;;;;;;1.92;1.30;;;2.20;77.30;;;;;;5122138;27;20200;-68
2023/02/07 13:01:52;;;;;;;1.92;1.83;;;2.30;77.10;;;;;;5129732;27;20220;-68
2023/02/07 13:04:48;;;;;;;2.10;1.83;;;2.30;77.10;;;;;;5124125;27;20673;-67
2023/02/07 13:07:31;;;;;;;2.00;1.80;;;2.30;75.30;;;;;;5109110;28;20615;-70